Time;durP1;ratioP1;P1;durP2;ratioP2;P2;SDS_P1;SDS_P2;PMS_P1;PMS_P2;Temp;Humidity;BMP_temperature;BMP_pressure;BME280_temperature;BME280_humidity;BME280_pressure;Samples;Min_cycle;Max_cycle;Signal;HPM_P1;HPM_P2
2021/06/18 00:00:32;;;;;;;12.27;10.60;;;;;;;18.60;85.14;97783.31;5100912;28;20209;-69
2021/06/18 00:03:00;;;;;;;10.93;10.17;;;;;;;18.58;85.42;97782.69;5100374;28;20202;-68
2021/06/18 00:05:28;;;;;;;10.90;10.10;;;;;;;18.66;85.11;97787.78;5103360;28;20201;-70
2021/06/18 00:07:56;;;;;;;10.77;10.07;;;;;;;18.61;85.17;97787.63;5103934;28;20229;-69
2021/06/18 00:10:26;;;;;;;11.30;10.50;;;;;;;18.64;85.04;97789.88;5103733;28;20202;-69
2021/06/18 00:12:54;;;;;;;11.03;10.10;;;;;;;18.41;86.84;97779.75;5101234;28;20201;-67
2021/06/18 00:15:22;;;;;;;10.40;9.80;;;;;;;18.33;87.76;97786.22;5099116;28;20218;-70
2021/06/18 00:17:51;;;;;;;10.37;9.43;;;;;;;18.37;88.01;97785.56;5102886;28;20789;-70
2021/06/18 00:20:20;;;;;;;11.07;10.23;;;;;;;18.38;87.89;97783.72;5099535;27;20203;-69
2021/06/18 00:22:48;;;;;;;10.90;10.03;;;;;;;18.42;87.38;97787.59;5102767;28;20670;-70
2021/06/18 00:25:16;;;;;;;10.60;9.80;;;;;;;18.42;86.85;97782.25;5102867;28;20783;-70
2021/06/18 00:27:44;;;;;;;11.50;10.50;;;;;;;18.33;87.52;97781.69;5102571;28;20232;-69
2021/06/18 00:30:13;;;;;;;11.03;9.93;;;;;;;18.32;87.69;97776.53;5105202;28;20208;-69
2021/06/18 00:32:42;;;;;;;10.80;10.00;;;;;;;18.12;88.95;97790.94;5103688;28;20206;-71
2021/06/18 00:35:12;;;;;;;10.87;10.07;;;;;;;18.02;89.69;97790.59;5100300;28;20670;-70
2021/06/18 00:37:40;;;;;;;10.87;10.10;;;;;;;18.09;90.76;97796.72;5099250;28;20304;-70
2021/06/18 00:40:09;;;;;;;10.53;9.83;;;;;;;18.07;90.34;97796.13;5099396;28;20206;-72
2021/06/18 00:42:38;;;;;;;11.77;10.97;;;;;;;18.04;90.33;97802.72;5098010;28;20208;-69
2021/06/18 00:45:07;;;;;;;11.50;10.50;;;;;;;17.99;90.82;97802.53;5102390;28;20625;-69
2021/06/18 00:47:37;;;;;;;11.40;10.63;;;;;;;17.91;91.31;97798.25;5102047;28;20221;-68
2021/06/18 00:50:06;;;;;;;10.50;9.73;;;;;;;18.13;90.09;97797.09;5095387;28;20198;-71
2021/06/18 00:52:36;;;;;;;10.83;10.03;;;;;;;18.08;89.64;97787.84;5103089;28;20205;-70
2021/06/18 00:55:04;;;;;;;11.03;10.17;;;;;;;17.87;90.63;97791.69;5099823;28;20582;-68
2021/06/18 00:57:32;;;;;;;12.20;11.30;;;;;;;17.85;90.82;97796.44;5102564;28;20230;-70
2021/06/18 01:00:00;;;;;;;11.53;10.63;;;;;;;17.73;91.87;97792.81;5103217;28;20202;-70
2021/06/18 01:02:28;;;;;;;11.27;10.57;;;;;;;17.72;90.78;97800.00;5104643;28;20208;-72
2021/06/18 01:04:56;;;;;;;11.47;10.50;;;;;;;17.64;90.88;97785.03;5099838;28;20228;-70
2021/06/18 01:07:27;;;;;;;10.23;9.63;;;;;;;17.48;91.59;97785.50;5104725;28;20221;-70
2021/06/18 01:10:05;;;;;;;11.50;10.70;;;;;;;17.67;91.04;97785.63;5100815;28;20602;-70
2021/06/18 01:12:37;;;;;;;11.30;10.43;;;;;;;17.42;92.43;97783.69;5103102;28;20202;-70
2021/06/18 01:15:11;;;;;;;11.40;10.60;;;;;;;17.36;93.05;97783.50;5101671;28;20287;-71
2021/06/18 01:17:45;;;;;;;12.13;11.07;;;;;;;17.45;92.35;97783.25;5098075;28;20240;-70
2021/06/18 01:20:32;;;;;;;11.37;10.57;;;;;;;17.37;92.96;97778.97;5101311;28;20197;-66
2021/06/18 01:23:00;;;;;;;12.93;11.87;;;;;;;17.40;92.51;97785.75;5101685;28;20212;-69
2021/06/18 01:25:38;;;;;;;11.17;10.13;;;;;;;17.33;92.49;97788.47;5102122;28;20615;-69
2021/06/18 01:28:31;;;;;;;12.23;11.33;;;;;;;17.27;93.37;97784.81;5097456;27;20226;-69
2021/06/18 01:31:00;;;;;;;11.17;10.37;;;;;;;17.53;91.73;97785.69;5103293;28;20210;-70
2021/06/18 01:33:30;;;;;;;12.73;11.83;;;;;;;17.38;92.85;97793.19;5104425;27;20667;-71
2021/06/18 01:35:59;;;;;;;11.57;10.60;;;;;;;17.28;93.37;97785.59;5099071;28;20597;-69
2021/06/18 01:38:28;;;;;;;11.20;10.23;;;;;;;17.28;93.25;97782.94;5102800;28;20245;-69
2021/06/18 01:41:01;;;;;;;10.60;9.90;;;;;;;17.34;93.31;97780.22;5096958;28;20202;-69
2021/06/18 01:43:32;;;;;;;11.90;11.00;;;;;;;17.41;92.47;97784.72;5102109;28;20567;-70
2021/06/18 01:46:00;;;;;;;11.70;11.00;;;;;;;17.31;93.19;97775.31;5102847;28;20205;-69
2021/06/18 01:48:28;;;;;;;12.07;11.23;;;;;;;17.33;93.75;97769.72;5102172;27;20222;-69
2021/06/18 01:50:57;;;;;;;11.33;10.53;;;;;;;17.27;93.69;97770.56;5102689;27;20209;-69
2021/06/18 01:53:25;;;;;;;12.40;11.60;;;;;;;17.18;94.54;97761.94;5103350;27;20193;-69
2021/06/18 01:55:54;;;;;;;12.40;11.43;;;;;;;17.19;93.98;97759.06;5103604;28;20217;-69
2021/06/18 01:58:23;;;;;;;12.50;11.60;;;;;;;17.10;94.81;97754.16;5100483;28;20225;-69
2021/06/18 02:00:53;;;;;;;11.23;10.43;;;;;;;17.02;95.91;97757.88;5101258;28;20214;-69
2021/06/18 02:03:25;;;;;;;11.93;11.13;;;;;;;16.93;96.01;97744.72;5102058;28;20206;-69
2021/06/18 02:05:54;;;;;;;12.23;11.17;;;;;;;17.04;95.94;97743.28;5098659;28;20333;-69
2021/06/18 02:08:23;;;;;;;12.27;11.13;;;;;;;16.93;96.18;97749.25;5102749;28;20241;-68
2021/06/18 02:10:52;;;;;;;12.97;12.03;;;;;;;16.95;96.04;97747.19;5099292;28;20216;-69
2021/06/18 02:13:20;;;;;;;12.70;11.67;;;;;;;16.98;97.32;97759.34;5102761;28;20202;-69
2021/06/18 02:15:49;;;;;;;13.40;12.07;;;;;;;16.89;97.03;97754.19;5102436;28;20205;-69
2021/06/18 02:18:22;;;;;;;11.37;10.53;;;;;;;16.76;97.67;97760.41;5102231;28;20225;-69
2021/06/18 02:20:53;;;;;;;12.03;11.03;;;;;;;16.80;97.81;97763.50;5097604;28;20205;-69
2021/06/18 02:23:22;;;;;;;11.50;10.67;;;;;;;16.83;97.15;97756.88;5102674;28;20206;-69
2021/06/18 02:25:50;;;;;;;11.83;10.83;;;;;;;16.98;96.11;97762.88;5101993;28;20647;-69
2021/06/18 02:28:20;;;;;;;11.53;10.73;;;;;;;16.90;96.10;97755.03;5102714;28;20222;-69
2021/06/18 02:30:48;;;;;;;12.13;11.33;;;;;;;16.92;95.80;97751.09;5103272;28;20629;-68
2021/06/18 02:33:18;;;;;;;11.33;10.43;;;;;;;16.75;96.45;97758.75;5100886;28;20246;-69
2021/06/18 02:35:47;;;;;;;11.77;10.97;;;;;;;16.61;99.17;97751.81;5098112;28;20720;-69
2021/06/18 02:38:15;;;;;;;12.20;11.20;;;;;;;16.52;99.81;97756.56;5099110;28;20229;-70
2021/06/18 02:40:44;;;;;;;11.73;10.73;;;;;;;16.54;99.89;97757.16;5099630;28;20653;-69
2021/06/18 02:43:12;;;;;;;12.73;11.73;;;;;;;16.58;99.52;97760.25;5104147;28;20213;-69
2021/06/18 02:45:40;;;;;;;11.97;10.87;;;;;;;16.50;99.90;97766.63;5097342;28;20588;-69
2021/06/18 02:48:13;;;;;;;13.33;12.33;;;;;;;16.34;100.00;97767.88;5098180;28;20221;-70
2021/06/18 02:50:44;;;;;;;13.17;11.93;;;;;;;16.24;100.00;97778.19;5101959;28;20201;-70
2021/06/18 02:53:18;;;;;;;14.87;13.70;;;;;;;16.17;100.00;97775.50;5099935;28;20206;-70
2021/06/18 02:55:51;;;;;;;12.77;11.83;;;;;;;16.29;100.00;97776.53;5100019;28;20208;-69
2021/06/18 02:58:22;;;;;;;12.37;11.47;;;;;;;16.30;100.00;97780.03;5099690;28;20217;-70
2021/06/18 03:00:51;;;;;;;14.07;13.07;;;;;;;16.38;100.00;97774.47;5105299;28;20205;-70
2021/06/18 03:03:21;;;;;;;11.57;10.80;;;;;;;16.26;100.00;97778.78;5102610;28;20202;-68
2021/06/18 03:05:51;;;;;;;12.83;11.73;;;;;;;16.11;100.00;97777.16;5100062;28;20657;-68
2021/06/18 03:08:21;;;;;;;13.23;12.20;;;;;;;16.16;100.00;97780.03;5104990;28;20232;-69
2021/06/18 03:10:50;;;;;;;12.80;11.80;;;;;;;16.09;100.00;97771.16;5099508;27;20683;-67
2021/06/18 03:13:21;;;;;;;13.07;12.17;;;;;;;16.23;100.00;97782.69;5100697;27;20210;-70
2021/06/18 03:15:49;;;;;;;14.07;12.63;;;;;;;16.19;100.00;97790.31;5101730;28;20244;-69
2021/06/18 03:18:20;;;;;;;13.50;12.43;;;;;;;16.10;100.00;97791.56;5100945;28;20502;-69
2021/06/18 03:20:53;;;;;;;13.33;12.37;;;;;;;16.16;100.00;97800.59;5105536;28;20205;-69
2021/06/18 03:23:22;;;;;;;13.60;12.30;;;;;;;16.22;100.00;97798.94;5103514;28;20197;-69
2021/06/18 03:25:52;;;;;;;12.70;11.67;;;;;;;16.04;100.00;97793.19;5097549;27;20201;-69
2021/06/18 03:28:20;;;;;;;12.77;11.83;;;;;;;16.05;100.00;97796.66;5098630;28;20232;-69
2021/06/18 03:30:49;;;;;;;12.80;11.90;;;;;;;15.99;100.00;97798.31;5102174;28;20210;-68
2021/06/18 03:33:19;;;;;;;13.80;12.37;;;;;;;16.01;100.00;97796.28;5101774;28;20201;-68
2021/06/18 03:35:47;;;;;;;12.97;11.97;;;;;;;16.02;100.00;97799.75;5105257;28;20217;-67
2021/06/18 03:38:17;;;;;;;12.83;11.87;;;;;;;16.00;100.00;97799.97;5102722;27;20482;-67
2021/06/18 03:40:46;;;;;;;13.03;12.13;;;;;;;16.09;100.00;97797.91;5103522;28;20396;-69
2021/06/18 03:43:14;;;;;;;12.57;11.77;;;;;;;16.19;100.00;97798.34;5099938;28;20213;-67
2021/06/18 03:45:44;;;;;;;13.70;12.77;;;;;;;16.19;100.00;97797.50;5101692;28;20214;-68
2021/06/18 03:48:13;;;;;;;12.93;12.03;;;;;;;16.27;100.00;97799.97;5104413;28;20404;-68
2021/06/18 03:50:42;;;;;;;12.83;11.83;;;;;;;16.22;100.00;97801.63;5099654;28;20210;-69
2021/06/18 03:53:10;;;;;;;12.43;11.63;;;;;;;16.36;100.00;97800.59;5103390;27;20209;-68
2021/06/18 03:55:40;;;;;;;12.97;12.10;;;;;;;16.14;100.00;97799.97;5097649;28;20690;-69
2021/06/18 03:58:08;;;;;;;13.67;12.57;;;;;;;16.07;100.00;97805.31;5098245;28;20411;-68
2021/06/18 04:00:37;;;;;;;14.20;13.00;;;;;;;16.22;100.00;97801.63;5102174;28;20202;-69
2021/06/18 04:03:08;;;;;;;14.23;13.13;;;;;;;16.22;100.00;97810.47;5112873;27;20206;-70
2021/06/18 04:05:37;;;;;;;14.77;13.60;;;;;;;16.16;100.00;97809.44;5106058;27;20200;-68
2021/06/18 04:08:06;;;;;;;14.23;13.13;;;;;;;16.15;100.00;97809.63;5104740;27;20233;-67
2021/06/18 04:10:37;;;;;;;13.30;12.37;;;;;;;16.41;99.30;97806.13;5102868;27;20383;-69
2021/06/18 04:13:08;;;;;;;14.43;13.33;;;;;;;16.44;99.28;97810.25;5102965;27;20314;-68
2021/06/18 04:15:36;;;;;;;13.23;12.27;;;;;;;16.31;100.00;97811.09;5104298;27;20209;-67
2021/06/18 04:18:05;;;;;;;14.33;13.23;;;;;;;16.36;100.00;97808.63;5104822;27;20230;-65
2021/06/18 04:20:34;;;;;;;13.50;12.30;;;;;;;16.54;100.00;97812.53;5102502;27;20210;-68
2021/06/18 04:23:03;;;;;;;12.87;11.87;;;;;;;16.58;99.66;97811.09;5105038;27;20206;-67
2021/06/18 04:25:31;;;;;;;14.13;13.07;;;;;;;16.62;99.44;97813.13;5106669;27;20202;-67
2021/06/18 04:28:00;;;;;;;15.03;13.83;;;;;;;16.85;96.31;97819.88;5106942;27;20225;-68
2021/06/18 04:30:29;;;;;;;14.17;12.97;;;;;;;16.76;97.36;97819.28;5105210;27;20209;-67
2021/06/18 04:32:57;;;;;;;14.23;12.93;;;;;;;17.00;95.28;97825.03;5104858;27;20209;-66
2021/06/18 04:35:25;;;;;;;13.73;12.63;;;;;;;17.04;94.94;97815.56;5098265;28;20539;-69
2021/06/18 04:37:53;;;;;;;14.30;13.20;;;;;;;17.10;93.98;97815.75;5101909;27;20237;-67
2021/06/18 04:40:22;;;;;;;14.20;13.23;;;;;;;17.17;94.76;97811.19;5092031;27;20215;-67
2021/06/18 04:42:50;;;;;;;15.27;13.87;;;;;;;17.19;95.03;97812.63;5098628;27;20221;-67
2021/06/18 04:45:18;;;;;;;15.63;14.30;;;;;;;17.29;93.49;97816.72;5108093;27;20406;-66
2021/06/18 04:47:48;;;;;;;14.53;13.37;;;;;;;17.31;93.75;97825.34;5099658;27;20457;-69
2021/06/18 04:50:16;;;;;;;13.73;12.73;;;;;;;17.38;93.84;97831.50;5107810;27;20473;-67
2021/06/18 04:52:46;;;;;;;14.27;13.03;;;;;;;17.52;92.82;97828.78;5104347;27;20229;-68
2021/06/18 04:55:17;;;;;;;15.57;14.10;;;;;;;17.74;91.59;97832.78;5107786;27;20202;-68
2021/06/18 04:57:47;;;;;;;14.53;13.33;;;;;;;17.71;90.64;97829.72;5099822;27;20257;-68
2021/06/18 05:00:16;;;;;;;15.87;14.63;;;;;;;17.68;91.89;97841.69;5106715;27;20200;-68
2021/06/18 05:02:45;;;;;;;15.47;14.17;;;;;;;17.71;92.03;97843.13;5103961;27;20198;-70
2021/06/18 05:05:14;;;;;;;16.77;15.57;;;;;;;17.96;89.03;97837.00;5102308;27;20562;-66
2021/06/18 05:07:42;;;;;;;17.47;15.90;;;;;;;18.09;87.61;97845.00;5103144;27;20217;-65
2021/06/18 05:10:11;;;;;;;16.77;15.37;;;;;;;18.06;88.50;97840.06;5105836;27;20205;-67
2021/06/18 05:12:39;;;;;;;16.47;14.87;;;;;;;18.27;87.92;97843.41;5102848;27;20636;-68
2021/06/18 05:15:08;;;;;;;15.93;14.83;;;;;;;18.28;88.62;97850.44;5103221;27;20204;-66
2021/06/18 05:17:37;;;;;;;15.70;14.47;;;;;;;18.36;88.50;97848.31;5098549;27;20236;-67
2021/06/18 05:20:06;;;;;;;18.03;15.90;;;;;;;18.43;87.42;97847.44;5101970;27;20213;-67
2021/06/18 05:22:36;;;;;;;17.10;15.80;;;;;;;18.68;85.44;97841.25;5105960;27;20205;-67
2021/06/18 05:25:04;;;;;;;16.33;15.13;;;;;;;18.60;87.08;97834.28;5105312;27;21067;-67
2021/06/18 05:27:32;;;;;;;17.37;16.07;;;;;;;18.85;85.75;97844.19;5095508;27;20241;-67
2021/06/18 05:30:00;;;;;;;16.13;14.93;;;;;;;18.85;85.24;97850.38;5104923;27;20232;-67
2021/06/18 05:32:28;;;;;;;16.97;15.60;;;;;;;18.93;84.94;97855.44;5103531;27;20221;-68
2021/06/18 05:34:57;;;;;;;17.17;15.80;;;;;;;19.11;83.46;97853.88;5103520;27;20201;-67
2021/06/18 05:37:25;;;;;;;17.13;15.77;;;;;;;19.22;83.43;97855.00;5104866;27;20229;-68
2021/06/18 05:39:54;;;;;;;17.37;16.07;;;;;;;19.33;81.75;97854.25;5103977;27;20236;-69
2021/06/18 05:42:22;;;;;;;19.10;17.70;;;;;;;19.75;78.61;97863.47;5104802;27;20204;-67
2021/06/18 05:44:50;;;;;;;18.27;16.77;;;;;;;19.75;79.07;97861.59;5103075;27;20213;-66
2021/06/18 05:47:18;;;;;;;18.23;16.50;;;;;;;19.78;79.23;97863.84;5102872;27;20790;-69
2021/06/18 05:49:46;;;;;;;16.80;15.43;;;;;;;19.94;78.64;97866.97;5104669;27;20510;-68
2021/06/18 05:52:14;;;;;;;18.00;16.50;;;;;;;20.00;79.01;97865.25;5101988;27;20201;-69
2021/06/18 05:54:41;;;;;;;17.30;15.90;;;;;;;20.28;78.29;97871.88;5098885;27;20211;-68
2021/06/18 05:57:11;;;;;;;16.87;15.33;;;;;;;20.32;78.83;97871.19;5098683;27;20233;-68
2021/06/18 05:59:39;;;;;;;15.93;14.67;;;;;;;20.48;76.87;97874.28;5101173;27;20229;-68
2021/06/18 06:02:07;;;;;;;16.20;14.90;;;;;;;20.84;74.49;97880.53;5103939;27;20206;-69
2021/06/18 06:04:35;;;;;;;18.43;14.80;;;;;;;20.97;74.20;97882.16;5101180;27;20235;-69
2021/06/18 06:07:04;;;;;;;16.53;15.13;;;;;;;21.08;74.45;97875.97;5102964;27;20221;-69
2021/06/18 06:09:32;;;;;;;16.40;15.17;;;;;;;21.25;73.35;97870.69;5101891;27;20200;-70
2021/06/18 06:11:59;;;;;;;15.57;14.23;;;;;;;21.48;72.15;97868.19;5104560;27;20232;-68
2021/06/18 06:14:29;;;;;;;16.67;15.00;;;;;;;21.61;69.61;97875.19;5104835;27;20201;-68
2021/06/18 06:16:57;;;;;;;17.13;15.37;;;;;;;21.63;70.45;97873.88;5101804;27;20252;-70
2021/06/18 06:19:25;;;;;;;17.77;14.20;;;;;;;21.86;68.98;97880.28;5097777;27;20324;-68
2021/06/18 06:21:53;;;;;;;14.47;13.17;;;;;;;21.76;69.78;97871.97;5100174;27;20220;-69
2021/06/18 06:24:21;;;;;;;15.70;14.20;;;;;;;22.16;67.68;97870.31;5097969;27;20201;-74
2021/06/18 06:26:49;;;;;;;15.90;13.40;;;;;;;22.46;66.25;97877.34;5100140;27;20229;-72
2021/06/18 06:29:16;;;;;;;26.50;15.47;;;;;;;22.46;64.96;97866.53;5102715;27;20227;-73
2021/06/18 06:31:46;;;;;;;19.70;13.50;;;;;;;22.33;65.66;97864.94;5100368;27;20211;-74
2021/06/18 06:34:14;;;;;;;16.00;13.37;;;;;;;22.59;64.23;97870.78;5102738;27;20464;-74
2021/06/18 06:36:42;;;;;;;21.47;12.20;;;;;;;22.77;64.16;97864.31;5097762;28;20234;-77
2021/06/18 06:39:10;;;;;;;14.00;11.97;;;;;;;22.96;63.02;97871.09;5101690;27;20589;-75
2021/06/18 06:41:38;;;;;;;11.30;10.30;;;;;;;23.16;61.17;97877.88;5093590;27;20201;-72
2021/06/18 06:44:06;;;;;;;10.50;9.50;;;;;;;23.25;60.55;97864.75;5099138;27;20767;-67
2021/06/18 06:46:34;;;;;;;9.90;9.20;;;;;;;23.37;59.08;97867.34;5103823;28;20230;-66
2021/06/18 06:49:04;;;;;;;10.67;9.63;;;;;;;23.31;59.81;97866.47;5103663;28;20204;-68
2021/06/18 06:51:32;;;;;;;9.77;8.97;;;;;;;23.49;59.17;97859.13;5100451;28;20213;-66
2021/06/18 06:54:00;;;;;;;11.17;9.10;;;;;;;23.45;60.39;97863.38;5096572;28;20301;-68
2021/06/18 06:56:28;;;;;;;10.07;9.20;;;;;;;23.90;57.48;97859.56;5100968;28;20690;-68
2021/06/18 06:58:56;;;;;;;10.23;9.47;;;;;;;23.96;57.16;97855.84;5100395;28;20241;-65
2021/06/18 07:01:24;;;;;;;10.50;9.60;;;;;;;23.93;57.03;97856.34;5108478;28;20202;-68
2021/06/18 07:03:53;;;;;;;10.07;9.33;;;;;;;24.03;55.94;97852.97;5104265;28;20826;-67
2021/06/18 07:06:23;;;;;;;10.27;9.47;;;;;;;24.09;56.84;97848.44;5102611;28;20573;-67
2021/06/18 07:08:51;;;;;;;9.70;8.80;;;;;;;24.23;56.59;97844.25;5099386;28;20420;-68
2021/06/18 07:11:22;;;;;;;14.77;9.63;;;;;;;24.52;55.24;97843.94;5104157;28;20240;-68
2021/06/18 07:13:53;;;;;;;14.90;8.70;;;;;;;24.49;54.28;97840.91;5102031;28;20209;-67
2021/06/18 07:16:28;;;;;;;10.70;9.60;;;;;;;24.63;53.72;97838.59;5103008;28;20681;-67
2021/06/18 07:18:56;;;;;;;13.70;9.97;;;;;;;24.66;54.47;97838.06;5102662;28;20308;-66
2021/06/18 07:21:30;;;;;;;9.77;8.77;;;;;;;24.83;52.66;97837.94;5104601;28;20201;-66
2021/06/18 07:23:58;;;;;;;8.67;7.80;;;;;;;24.76;53.83;97835.47;5104575;28;20589;-68
2021/06/18 07:26:26;;;;;;;9.87;9.10;;;;;;;24.85;54.61;97838.50;5101832;28;20203;-66
2021/06/18 07:28:54;;;;;;;9.80;8.93;;;;;;;25.07;52.79;97838.38;5099918;28;20206;-68
2021/06/18 07:31:22;;;;;;;8.97;8.17;;;;;;;24.92;54.46;97833.66;5103099;28;21285;-66
2021/06/18 07:33:50;;;;;;;9.30;8.60;;;;;;;25.15;53.75;97831.63;5101641;28;20297;-67
2021/06/18 07:36:21;;;;;;;9.40;7.70;;;;;;;25.04;52.79;97830.75;5103689;28;20566;-67
2021/06/18 07:38:51;;;;;;;8.27;7.57;;;;;;;24.98;53.05;97827.19;5104711;28;20270;-67
2021/06/18 07:41:19;;;;;;;7.90;7.30;;;;;;;25.07;53.39;97813.97;5103946;28;20195;-67
2021/06/18 07:43:47;;;;;;;8.67;7.80;;;;;;;25.21;54.35;97803.47;5122147;28;20235;-69
2021/06/18 07:46:16;;;;;;;15.43;9.53;;;;;;;25.28;53.26;97795.91;5110865;27;20304;-69
2021/06/18 07:48:44;;;;;;;16.17;10.13;;;;;;;25.26;53.20;97798.06;5095347;27;21272;-70
2021/06/18 07:51:12;;;;;;;8.10;7.50;;;;;;;25.51;52.67;97810.13;5097389;27;20204;-68
2021/06/18 07:53:40;;;;;;;7.70;7.10;;;;;;;25.78;52.35;97811.84;5095283;27;20319;-71
2021/06/18 07:56:10;;;;;;;8.47;7.37;;;;;;;26.05;51.84;97818.13;5092863;27;20246;-69
2021/06/18 07:58:39;;;;;;;9.03;8.10;;;;;;;26.22;50.95;97810.53;5089071;27;20198;-71
2021/06/18 08:01:08;;;;;;;7.40;6.90;;;;;;;26.20;50.70;97809.19;5091502;27;20227;-70
2021/06/18 08:03:36;;;;;;;8.20;7.53;;;;;;;26.12;50.26;97808.59;5090616;27;20288;-71
2021/06/18 08:06:04;;;;;;;7.97;7.37;;;;;;;26.27;50.27;97815.97;5092774;27;20203;-71
2021/06/18 08:08:35;;;;;;;8.17;7.47;;;;;;;26.41;50.18;97820.88;5095145;27;20730;-71
2021/06/18 08:11:03;;;;;;;9.57;8.60;;;;;;;26.62;49.92;97823.56;5093015;27;20207;-71
2021/06/18 08:13:33;;;;;;;8.10;7.37;;;;;;;26.59;49.36;97812.16;5094623;27;20198;-72
2021/06/18 08:16:01;;;;;;;6.87;6.30;;;;;;;26.59;49.50;97812.16;5092597;27;20199;-71
2021/06/18 08:18:29;;;;;;;8.73;7.53;;;;;;;26.59;50.24;97808.63;5091321;27;20222;-71
2021/06/18 08:20:57;;;;;;;7.57;7.03;;;;;;;26.79;49.07;97812.41;5091545;27;20221;-74
2021/06/18 08:23:26;;;;;;;9.80;7.70;;;;;;;26.84;49.28;97815.13;5090959;27;20292;-72
2021/06/18 08:25:54;;;;;;;7.80;7.23;;;;;;;26.86;49.11;97813.78;5093490;27;20625;-71
2021/06/18 08:28:25;;;;;;;8.43;7.40;;;;;;;26.89;49.59;97817.84;5096037;28;20403;-73
2021/06/18 08:30:54;;;;;;;12.47;8.73;;;;;;;27.12;49.28;97821.06;5100658;27;20949;-74
2021/06/18 08:33:23;;;;;;;10.83;8.50;;;;;;;27.40;47.86;97814.13;5095936;27;20254;-72
2021/06/18 08:35:51;;;;;;;11.20;8.43;;;;;;;27.50;48.04;97813.31;5094041;27;20230;-69
2021/06/18 08:38:21;;;;;;;7.50;6.80;;;;;;;27.21;46.96;97813.16;5093553;27;20617;-72
2021/06/18 08:40:58;;;;;;;7.10;6.37;;;;;;;27.55;47.29;97812.50;5091671;27;20306;-70
2021/06/18 08:43:38;;;;;;;7.37;6.67;;;;;;;27.55;47.05;97807.84;5090068;27;20559;-72
2021/06/18 08:46:08;;;;;;;7.40;6.13;;;;;;;27.76;46.16;97807.75;5092245;27;20228;-72
2021/06/18 08:48:36;;;;;;;8.40;6.93;;;;;;;27.80;46.38;97819.69;5098866;27;20316;-70
2021/06/18 08:51:05;;;;;;;6.77;6.37;;;;;;;27.89;45.32;97806.31;5099498;27;20201;-72
2021/06/18 08:53:36;;;;;;;6.73;6.13;;;;;;;28.03;44.14;97812.72;5098125;27;20209;-71
2021/06/18 08:56:06;;;;;;;7.20;6.80;;;;;;;28.03;43.37;97812.72;5093904;27;20308;-71
2021/06/18 08:58:37;;;;;;;8.03;7.30;;;;;;;27.83;44.52;97810.97;5096114;27;20662;-73
2021/06/18 09:01:11;;;;;;;7.87;7.07;;;;;;;28.23;44.25;97812.91;5094209;27;20225;-72
2021/06/18 09:03:41;;;;;;;6.80;6.00;;;;;;;28.16;44.34;97816.75;5094722;27;20681;-72
2021/06/18 09:06:27;;;;;;;7.80;7.07;;;;;;;28.16;44.06;97822.22;5090886;27;20201;-71
2021/06/18 09:09:19;;;;;;;6.37;5.97;;;;;;;28.33;43.83;97820.19;5102167;27;20767;-72
2021/06/18 09:11:52;;;;;;;8.17;5.73;;;;;;;28.34;42.73;97828.06;5096286;27;20230;-73
2021/06/18 09:14:27;;;;;;;6.37;5.87;;;;;;;28.44;42.55;97827.16;5099975;27;20211;-70
2021/06/18 09:17:24;;;;;;;7.07;6.47;;;;;;;28.61;42.41;97818.56;5098973;27;20277;-72
2021/06/18 09:19:53;;;;;;;6.57;6.13;;;;;;;28.60;41.48;97816.94;5088416;28;20246;-73
2021/06/18 09:22:23;;;;;;;6.30;5.77;;;;;;;28.58;42.94;97819.16;5090508;28;21437;-70
2021/06/18 09:24:59;;;;;;;6.00;5.67;;;;;;;28.68;42.00;97821.75;5088395;28;20214;-75
2021/06/18 09:27:32;;;;;;;6.93;5.77;;;;;;;28.75;42.57;97826.91;5087043;27;20955;-72
2021/06/18 09:30:17;;;;;;;6.60;6.00;;;;;;;28.94;42.29;97829.72;5094373;27;20209;-75
2021/06/18 09:33:01;;;;;;;6.50;6.00;;;;;;;28.99;40.31;97824.22;5090184;27;20265;-71
2021/06/18 09:35:30;;;;;;;6.17;5.67;;;;;;;28.74;41.08;97830.72;5092970;27;20571;-72
2021/06/18 09:37:59;;;;;;;6.53;5.70;;;;;;;28.87;42.13;97843.69;5094472;27;20226;-72
2021/06/18 09:40:27;;;;;;;6.17;5.77;;;;;;;29.01;41.09;97834.84;5097156;27;20233;-71
2021/06/18 09:42:58;;;;;;;6.90;6.17;;;;;;;29.24;39.17;97832.41;5083491;28;20240;-71
2021/06/18 09:45:26;;;;;;;6.63;6.10;;;;;;;29.23;40.06;97837.06;5091866;28;20218;-73
2021/06/18 09:48:07;;;;;;;6.37;5.77;;;;;;;29.45;38.81;97833.00;5103003;27;20249;-73
2021/06/18 09:50:39;;;;;;;71.27;67.87;;;;;;;29.49;37.94;97825.03;5098207;27;20212;-72
2021/06/18 09:53:12;;;;;;;7.93;7.33;;;;;;;29.23;40.24;97825.31;5076966;28;20225;-68
2021/06/18 09:55:41;;;;;;;7.60;7.03;;;;;;;29.06;41.42;97818.44;5101872;28;20205;-68
2021/06/18 09:58:09;;;;;;;6.57;5.97;;;;;;;29.09;39.85;97823.28;5101099;28;20221;-69
2021/06/18 10:00:37;;;;;;;9.27;7.07;;;;;;;29.14;40.46;97823.25;5099010;28;20268;-69
2021/06/18 10:03:09;;;;;;;7.97;6.20;;;;;;;29.30;39.04;97820.31;5100555;28;20202;-68
2021/06/18 10:05:42;;;;;;;6.27;5.77;;;;;;;29.34;38.06;97815.91;5098144;28;20198;-70
2021/06/18 10:08:10;;;;;;;6.37;5.77;;;;;;;29.21;37.64;97814.72;5093646;28;20710;-70
2021/06/18 10:10:38;;;;;;;5.87;5.17;;;;;;;29.05;37.86;97808.63;5102351;28;20201;-71
2021/06/18 10:13:06;;;;;;;7.07;6.57;;;;;;;29.30;37.85;97806.66;5101378;27;20444;-73
2021/06/18 10:15:38;;;;;;;6.00;5.60;;;;;;;29.31;38.66;97803.66;5103748;27;20205;-71
2021/06/18 10:18:11;;;;;;;5.97;5.50;;;;;;;29.51;39.71;97803.72;5098769;28;20221;-72
2021/06/18 10:20:41;;;;;;;6.47;5.93;;;;;;;29.85;39.51;97789.84;5100378;28;20220;-71
2021/06/18 10:23:13;;;;;;;6.23;5.53;;;;;;;29.97;37.72;97794.88;5091607;28;20205;-73
2021/06/18 10:25:44;;;;;;;6.43;5.83;;;;;;;29.90;39.67;97808.88;5097772;28;20225;-72
2021/06/18 10:28:19;;;;;;;6.60;5.93;;;;;;;30.23;36.23;97799.16;5102914;27;20756;-70
2021/06/18 10:30:48;;;;;;;5.63;5.23;;;;;;;29.69;36.98;97793.94;5096532;28;20204;-71
2021/06/18 10:33:36;;;;;;;6.60;6.00;;;;;;;29.35;39.01;97790.22;5096677;28;20212;-70
2021/06/18 10:36:24;;;;;;;5.77;5.37;;;;;;;29.63;35.82;97795.91;5100322;28;20590;-71
2021/06/18 10:39:05;;;;;;;6.00;5.60;;;;;;;30.03;36.09;97785.50;5101500;28;20209;-71
2021/06/18 10:41:33;;;;;;;6.20;5.70;;;;;;;30.35;37.41;97791.31;5101473;28;20209;-71
2021/06/18 10:44:01;;;;;;;6.03;5.07;;;;;;;30.75;37.09;97794.44;5099305;28;20197;-72
2021/06/18 10:46:32;;;;;;;7.27;6.53;;;;;;;31.41;34.98;97793.44;5101920;28;20242;-71
2021/06/18 10:49:03;;;;;;;6.20;5.60;;;;;;;32.61;32.00;97786.03;5097112;28;20213;-70
2021/06/18 10:51:34;;;;;;;5.63;5.13;;;;;;;32.29;32.10;97779.69;5100953;28;20469;-73
2021/06/18 10:54:04;;;;;;;5.90;5.40;;;;;;;32.63;33.46;97779.09;5101404;28;20235;-71
2021/06/18 10:57:01;;;;;;;5.22;4.82;;;;;;;33.33;31.15;97780.50;5098568;28;20660;-71
2021/06/18 10:59:31;;;;;;;6.95;5.20;;;;;;;32.62;33.10;97782.97;5099314;28;21007;-71
2021/06/18 11:02:00;;;;;;;5.07;4.78;;;;;;;33.86;28.90;97783.31;5102896;28;20735;-71
2021/06/18 11:04:40;;;;;;;5.07;4.78;;;;;;;33.43;30.20;97777.47;5099880;28;20215;-71
2021/06/18 11:07:24;;;;;;;5.47;4.97;;;;;;;32.17;32.37;97775.56;5101276;28;20216;-71
2021/06/18 11:09:53;;;;;;;8.10;5.72;;;;;;;33.04;31.58;97773.66;5094799;28;20423;-71
2021/06/18 11:12:46;;;;;;;6.50;5.88;;;;;;;34.13;28.62;97771.25;5102269;28;20208;-71
2021/06/18 11:15:37;;;;;;;6.97;5.28;;;;;;;34.15;28.13;97763.47;5096462;28;20294;-71
2021/06/18 11:18:13;;;;;;;5.90;5.38;;;;;;;34.40;28.48;97762.94;5097431;28;20728;-70
2021/06/18 11:20:56;;;;;;;6.53;5.95;;;;;;;33.70;29.30;97750.03;5103260;27;20311;-71
2021/06/18 11:23:34;;;;;;;6.63;6.03;;;;;;;33.36;28.95;97765.34;5105189;27;20216;-71
2021/06/18 11:26:07;;;;;;;5.57;5.18;;;;;;;33.08;29.94;97760.91;5101408;28;20462;-70
2021/06/18 11:28:52;;;;;;;5.77;5.27;;;;;;;33.16;29.78;97762.88;5101428;28;20613;-71
2021/06/18 11:31:42;;;;;;;6.27;5.80;;;;;;;33.75;29.64;97764.44;5101496;28;20200;-72
2021/06/18 11:34:25;;;;;;;5.83;5.33;;;;;;;33.72;30.77;97762.31;5101703;27;20627;-71
2021/06/18 11:36:55;;;;;;;5.30;4.90;;;;;;;33.83;28.75;97759.25;5103898;28;20593;-71